createdAt,value
2023-05-11T00:00:06.192Z,15.70
2023-05-11T00:01:06.187Z,15.60
2023-05-11T00:02:06.209Z,17.10
2023-05-11T00:03:06.405Z,15.80
2023-05-11T00:04:06.292Z,16.40
2023-05-11T00:05:06.191Z,16.90
2023-05-11T00:06:06.182Z,17.10
2023-05-11T00:07:06.176Z,16.70
2023-05-11T00:08:06.187Z,15.40
2023-05-11T00:09:06.175Z,16.30
2023-05-11T00:10:06.183Z,18.50
2023-05-11T00:11:06.190Z,17.30
2023-05-11T00:12:06.182Z,16.70
2023-05-11T00:13:06.172Z,16.80
2023-05-11T00:14:06.170Z,17.10
2023-05-11T00:15:06.175Z,17.10
2023-05-11T00:16:06.231Z,17.00
2023-05-11T00:17:06.162Z,14.40
2023-05-11T00:18:06.203Z,16.80
2023-05-11T00:19:06.289Z,16.50
2023-05-11T00:20:06.170Z,16.40
2023-05-11T00:21:06.158Z,17.40
2023-05-11T00:22:06.152Z,16.20
2023-05-11T00:23:06.160Z,18.10
2023-05-11T00:24:06.166Z,18.50
2023-05-11T00:25:06.159Z,17.60
2023-05-11T00:26:06.146Z,17.90
2023-05-11T00:27:06.181Z,17.90
2023-05-11T00:28:06.142Z,16.60
2023-05-11T00:29:06.138Z,17.60
2023-05-11T00:30:06.135Z,17.20
2023-05-11T00:31:06.165Z,18.00
2023-05-11T00:32:06.139Z,18.80
2023-05-11T00:33:06.188Z,18.20
2023-05-11T00:34:06.124Z,19.30
2023-05-11T00:35:06.328Z,18.60
2023-05-11T00:36:06.136Z,19.10
2023-05-11T00:37:06.121Z,18.80
2023-05-11T00:38:06.116Z,19.00
2023-05-11T00:39:06.128Z,19.00
2023-05-11T00:40:06.123Z,18.00
2023-05-11T00:41:06.118Z,18.40
2023-05-11T00:42:06.124Z,19.80
2023-05-11T00:43:06.132Z,17.80
2023-05-11T00:44:06.112Z,16.20
2023-05-11T00:45:06.106Z,18.50
2023-05-11T00:46:06.105Z,17.80
2023-05-11T00:47:06.280Z,16.70
2023-05-11T00:48:06.180Z,15.10
2023-05-11T00:49:06.104Z,16.70
2023-05-11T00:50:06.104Z,17.30
2023-05-11T00:51:06.090Z,17.90
2023-05-11T00:52:06.101Z,18.50
2023-05-11T00:53:06.096Z,16.90
2023-05-11T00:54:06.087Z,17.60
2023-05-11T00:55:06.091Z,16.20
2023-05-11T00:56:06.107Z,17.40
2023-05-11T00:57:06.086Z,20.10
2023-05-11T00:58:06.188Z,21.20
2023-05-11T00:59:06.104Z,18.70
2023-05-11T01:00:06.079Z,20.50
2023-05-11T01:01:06.121Z,20.00
2023-05-11T01:02:06.121Z,19.50
2023-05-11T01:03:06.102Z,18.30
2023-05-11T01:04:06.110Z,18.80
2023-05-11T01:05:06.080Z,18.80
2023-05-11T01:06:06.066Z,19.60
2023-05-11T01:07:06.069Z,20.50
2023-05-11T01:08:06.069Z,19.90
2023-05-11T01:09:06.078Z,22.50
2023-05-11T01:10:06.061Z,25.90
2023-05-11T01:11:06.147Z,26.50
2023-05-11T01:12:06.068Z,31.10
2023-05-11T01:13:06.079Z,31.80
2023-05-11T01:14:06.069Z,29.60
2023-05-11T01:15:06.076Z,28.80
2023-05-11T01:16:06.097Z,28.60
2023-05-11T01:17:06.053Z,30.10
2023-05-11T01:18:06.125Z,31.30
2023-05-11T01:19:06.150Z,28.40
2023-05-11T01:20:06.058Z,28.30
2023-05-11T01:21:06.051Z,29.40
2023-05-11T01:22:06.051Z,28.10
2023-05-11T01:23:06.046Z,28.00
2023-05-11T01:24:06.043Z,26.50
2023-05-11T01:25:06.046Z,24.70
2023-05-11T01:26:06.046Z,23.30
2023-05-11T01:27:06.037Z,22.10
2023-05-11T01:28:06.032Z,19.40
2023-05-11T01:29:06.035Z,21.30
2023-05-11T01:30:06.032Z,20.10
2023-05-11T01:31:06.054Z,19.10
2023-05-11T01:32:06.068Z,19.30
2023-05-11T01:33:06.050Z,18.90
2023-05-11T01:34:06.023Z,20.50
2023-05-11T01:35:06.033Z,20.30
2023-05-11T01:36:06.032Z,19.30
2023-05-11T01:37:06.018Z,19.80
2023-05-11T01:38:06.019Z,18.40
2023-05-11T01:39:06.016Z,20.90
2023-05-11T01:40:06.214Z,20.40
2023-05-11T01:41:06.007Z,20.70
2023-05-11T01:42:06.011Z,23.70
2023-05-11T01:43:06.012Z,19.90
2023-05-11T01:44:06.012Z,20.40
2023-05-11T01:45:06.010Z,23.00
2023-05-11T01:46:06.002Z,21.10
2023-05-11T01:47:06.017Z,20.80
2023-05-11T01:48:06.014Z,25.20
2023-05-11T01:49:06.001Z,22.80
2023-05-11T01:50:06.010Z,23.00
2023-05-11T01:51:05.996Z,23.00
2023-05-11T01:52:05.984Z,22.80
2023-05-11T01:53:05.984Z,23.50
2023-05-11T01:54:05.983Z,20.70
2023-05-11T01:55:05.978Z,19.90
2023-05-11T01:56:06.005Z,20.80
2023-05-11T01:57:05.988Z,21.80
2023-05-11T01:58:05.982Z,21.50
2023-05-11T01:59:05.972Z,20.90
2023-05-11T02:00:05.980Z,21.50
2023-05-11T02:01:05.994Z,21.80
2023-05-11T02:02:05.969Z,23.40
2023-05-11T02:03:06.045Z,23.50
2023-05-11T02:04:05.974Z,23.60
2023-05-11T02:05:05.958Z,23.00
2023-05-11T02:06:05.970Z,21.30
2023-05-11T02:07:05.960Z,22.50
2023-05-11T02:08:05.961Z,22.60
2023-05-11T02:09:05.953Z,22.80
2023-05-11T02:10:05.962Z,21.80
2023-05-11T02:11:05.954Z,23.10
2023-05-11T02:12:05.963Z,22.30
2023-05-11T02:13:05.951Z,22.30
2023-05-11T02:14:05.964Z,20.70
2023-05-11T02:15:05.948Z,23.10
2023-05-11T02:16:06.044Z,22.70
2023-05-11T02:17:05.939Z,22.80
2023-05-11T02:18:06.129Z,24.20
2023-05-11T02:19:06.041Z,22.70
2023-05-11T02:20:05.933Z,24.50
2023-05-11T02:21:05.935Z,22.10
2023-05-11T02:22:05.960Z,21.40
2023-05-11T02:23:05.925Z,21.10
2023-05-11T02:24:05.928Z,22.60
2023-05-11T02:25:05.924Z,21.40
2023-05-11T02:26:05.935Z,22.20
2023-05-11T02:27:05.917Z,22.40
2023-05-11T02:28:05.922Z,20.90
2023-05-11T02:29:05.915Z,19.30
2023-05-11T02:30:05.913Z,19.80
2023-05-11T02:31:05.926Z,19.00
2023-05-11T02:32:05.914Z,19.70
2023-05-11T02:33:05.991Z,17.90
2023-05-11T02:34:05.911Z,16.50
2023-05-11T02:35:05.930Z,20.20
2023-05-11T02:36:05.915Z,22.60
2023-05-11T02:37:05.912Z,25.10
2023-05-11T02:38:05.901Z,23.30
2023-05-11T02:39:05.915Z,24.50
2023-05-11T02:40:05.900Z,22.90
2023-05-11T02:41:05.904Z,23.00
2023-05-11T02:42:05.893Z,25.30
2023-05-11T02:43:05.884Z,27.00
2023-05-11T02:44:05.884Z,24.40
2023-05-11T02:45:06.335Z,28.90
2023-05-11T02:46:05.891Z,27.30
2023-05-11T02:47:05.967Z,29.80
2023-05-11T02:48:05.911Z,27.90
2023-05-11T02:49:05.875Z,30.10
2023-05-11T02:50:05.882Z,29.10
2023-05-11T02:51:05.898Z,28.40
2023-05-11T02:52:05.871Z,29.50
2023-05-11T02:53:05.867Z,28.60
2023-05-11T02:54:05.866Z,29.90
2023-05-11T02:55:05.860Z,29.80
2023-05-11T02:56:05.861Z,29.60
2023-05-11T02:57:05.856Z,30.20
2023-05-11T02:58:05.880Z,29.10
2023-05-11T02:59:05.868Z,30.80
2023-05-11T03:00:05.854Z,29.40
2023-05-11T03:01:05.940Z,29.70
2023-05-11T03:02:06.018Z,29.10
2023-05-11T03:03:05.981Z,30.60
2023-05-11T03:04:05.844Z,30.90
2023-05-11T03:05:05.845Z,31.70
2023-05-11T03:06:05.843Z,32.60
2023-05-11T03:07:05.893Z,27.30
2023-05-11T03:08:05.836Z,30.80
2023-05-11T03:09:07.197Z,30.20
2023-05-11T03:10:05.833Z,31.50
2023-05-11T03:11:05.830Z,29.80
2023-05-11T03:12:05.831Z,29.30
2023-05-11T03:13:05.828Z,27.40
2023-05-11T03:14:05.822Z,27.20
2023-05-11T03:15:05.816Z,28.60
2023-05-11T03:16:05.865Z,26.80
2023-05-11T03:17:05.862Z,26.40
2023-05-11T03:18:05.845Z,26.20
2023-05-11T03:19:05.940Z,26.20
2023-05-11T03:20:05.814Z,29.60
2023-05-11T03:21:05.805Z,24.90
2023-05-11T03:22:05.814Z,27.50
2023-05-11T03:23:05.828Z,29.10
2023-05-11T03:24:05.805Z,26.60
2023-05-11T03:25:05.804Z,21.00
2023-05-11T03:26:05.801Z,26.20
2023-05-11T03:27:05.795Z,23.20
2023-05-11T03:28:05.796Z,22.90
2023-05-11T03:29:05.793Z,25.00
2023-05-11T03:30:05.791Z,25.80
2023-05-11T03:31:05.788Z,22.30
2023-05-11T03:32:05.845Z,25.10
2023-05-11T03:33:05.835Z,21.20
2023-05-11T03:34:05.795Z,24.50
2023-05-11T03:35:05.785Z,21.60
2023-05-11T03:36:05.794Z,23.80
2023-05-11T03:37:05.786Z,22.60
2023-05-11T03:38:05.778Z,21.90
2023-05-11T03:39:05.799Z,24.00
2023-05-11T03:40:05.786Z,23.60
2023-05-11T03:41:05.776Z,19.80
2023-05-11T03:42:05.769Z,24.50
2023-05-11T03:43:05.776Z,25.20
2023-05-11T03:44:05.764Z,24.50
2023-05-11T03:45:05.763Z,26.80
2023-05-11T03:46:05.790Z,29.20
2023-05-11T03:47:05.764Z,22.10
2023-05-11T03:48:05.781Z,28.70
2023-05-11T03:49:05.764Z,29.70
2023-05-11T03:50:06.113Z,28.30
2023-05-11T03:51:05.750Z,25.80
2023-05-11T03:52:05.748Z,25.30
2023-05-11T03:53:05.744Z,25.80
2023-05-11T03:54:05.745Z,23.60
2023-05-11T03:55:05.759Z,23.60
2023-05-11T03:56:05.746Z,25.50
2023-05-11T03:57:05.739Z,24.00
2023-05-11T03:58:05.769Z,26.80
2023-05-11T03:59:05.735Z,27.40
2023-05-11T04:00:05.746Z,26.90
2023-05-11T04:01:05.738Z,29.90
2023-05-11T04:02:05.730Z,30.00
2023-05-11T04:03:05.865Z,29.20
2023-05-11T04:04:05.834Z,28.60
2023-05-11T04:05:05.718Z,32.40
2023-05-11T04:06:05.718Z,31.10
2023-05-11T04:07:05.721Z,30.80
2023-05-11T04:08:05.713Z,32.00
2023-05-11T04:09:05.712Z,26.40
2023-05-11T04:10:05.718Z,30.50
2023-05-11T04:11:05.748Z,31.80
2023-05-11T04:12:05.718Z,35.90
2023-05-11T04:13:05.714Z,35.60
2023-05-11T04:14:05.708Z,31.90
2023-05-11T04:15:05.704Z,30.70
2023-05-11T04:16:05.736Z,30.80
2023-05-11T04:17:05.698Z,35.20
2023-05-11T04:18:05.801Z,33.90
2023-05-11T04:19:05.737Z,32.60
2023-05-11T04:20:05.691Z,33.10
2023-05-11T04:21:05.692Z,33.10
2023-05-11T04:22:05.683Z,32.20
2023-05-11T04:23:06.087Z,33.40
2023-05-11T04:24:05.683Z,34.20
2023-05-11T04:25:05.677Z,33.90
2023-05-11T04:26:05.677Z,35.90
2023-05-11T04:27:05.696Z,32.50
2023-05-11T04:28:05.676Z,32.00
2023-05-11T04:29:05.694Z,28.90
2023-05-11T04:30:05.679Z,32.40
2023-05-11T04:31:05.721Z,34.20
2023-05-11T04:32:05.673Z,32.00
2023-05-11T04:33:05.712Z,34.60
2023-05-11T04:34:05.677Z,33.00
2023-05-11T04:35:05.676Z,36.20
2023-05-11T04:36:05.668Z,36.00
2023-05-11T04:37:05.662Z,33.40
2023-05-11T04:38:05.665Z,35.40
2023-05-11T04:39:07.431Z,35.50
2023-05-11T04:40:05.665Z,31.50
2023-05-11T04:41:05.665Z,33.30
2023-05-11T04:42:05.649Z,32.90
2023-05-11T04:43:05.668Z,35.60
2023-05-11T04:44:05.650Z,34.80
2023-05-11T04:45:05.642Z,33.60
2023-05-11T04:46:05.666Z,35.10
2023-05-11T04:47:05.683Z,34.50
2023-05-11T04:48:05.705Z,33.50
2023-05-11T04:49:05.637Z,35.50
2023-05-11T04:50:05.633Z,36.90
2023-05-11T04:51:05.629Z,37.10
2023-05-11T04:52:05.629Z,36.70
2023-05-11T04:53:05.626Z,37.20
2023-05-11T04:54:05.626Z,35.90
2023-05-11T04:55:05.882Z,37.70
2023-05-11T04:56:05.623Z,36.00
2023-05-11T04:57:05.627Z,33.00
2023-05-11T04:58:05.624Z,33.30
2023-05-11T04:59:05.663Z,35.60
2023-05-11T05:00:05.650Z,32.90
2023-05-11T05:01:05.678Z,34.80
2023-05-11T05:02:05.609Z,35.80
2023-05-11T05:03:05.668Z,34.40
2023-05-11T05:04:05.684Z,35.10
2023-05-11T05:05:05.623Z,31.30
2023-05-11T05:06:05.607Z,34.60
2023-05-11T05:07:05.606Z,33.40
2023-05-11T05:08:05.604Z,33.60
2023-05-11T05:09:05.614Z,28.00
2023-05-11T05:10:05.597Z,32.10
2023-05-11T05:11:05.612Z,31.30
2023-05-11T05:12:05.599Z,28.80
2023-05-11T05:13:05.606Z,30.00
2023-05-11T05:14:05.600Z,34.10
2023-05-11T05:15:05.642Z,31.80
2023-05-11T05:16:05.596Z,30.80
2023-05-11T05:17:05.619Z,32.10
2023-05-11T05:18:05.615Z,32.90
2023-05-11T05:19:05.674Z,33.50
2023-05-11T05:20:05.585Z,35.00
2023-05-11T05:21:05.582Z,32.90
2023-05-11T05:22:05.600Z,32.00
2023-05-11T05:23:05.577Z,30.30
2023-05-11T05:24:05.577Z,32.40
2023-05-11T05:25:05.591Z,33.50
2023-05-11T05:26:05.577Z,30.60
2023-05-11T05:27:05.572Z,32.00
2023-05-11T05:28:05.569Z,34.40
2023-05-11T05:29:05.565Z,35.50
2023-05-11T05:30:05.567Z,35.70
2023-05-11T05:31:05.592Z,32.40
2023-05-11T05:32:05.575Z,30.20
2023-05-11T05:33:05.739Z,34.50
2023-05-11T05:34:05.569Z,33.80
2023-05-11T05:35:05.561Z,34.60
2023-05-11T05:36:05.556Z,34.30
2023-05-11T05:37:05.553Z,34.90
2023-05-11T05:38:05.553Z,35.70
2023-05-11T05:39:05.549Z,32.50
2023-05-11T05:40:05.555Z,35.20
2023-05-11T05:41:05.559Z,33.40
2023-05-11T05:42:05.541Z,35.60
2023-05-11T05:43:05.546Z,36.10
2023-05-11T05:44:05.537Z,34.10
2023-05-11T05:45:05.532Z,30.10
2023-05-11T05:46:05.550Z,33.40
2023-05-11T05:47:05.552Z,31.20
2023-05-11T05:48:05.570Z,36.50
2023-05-11T05:49:05.551Z,33.30
2023-05-11T05:50:05.534Z,28.20
2023-05-11T05:51:05.527Z,30.90
2023-05-11T05:52:05.532Z,31.90
2023-05-11T05:53:05.527Z,28.00
2023-05-11T05:54:05.526Z,30.40
2023-05-11T05:55:05.518Z,27.20
2023-05-11T05:56:05.518Z,29.60
2023-05-11T05:57:05.517Z,31.60
2023-05-11T05:58:05.517Z,29.70
2023-05-11T05:59:05.537Z,31.60
2023-05-11T06:00:05.509Z,30.20
2023-05-11T06:01:05.503Z,32.80
2023-05-11T06:02:05.509Z,32.40
2023-05-11T06:03:05.616Z,31.50
2023-05-11T06:04:05.742Z,32.00
2023-05-11T06:05:05.530Z,32.70
2023-05-11T06:06:05.495Z,30.10
2023-05-11T06:07:05.492Z,32.40
2023-05-11T06:08:10.534Z,31.30
2023-05-11T06:09:05.490Z,33.40
2023-05-11T06:10:05.496Z,31.30
2023-05-11T06:11:05.484Z,29.70
2023-05-11T06:12:05.486Z,30.80
2023-05-11T06:13:05.498Z,29.80
2023-05-11T06:14:05.483Z,30.40
2023-05-11T06:15:05.483Z,28.80
2023-05-11T06:16:05.569Z,29.30
2023-05-11T06:17:05.477Z,23.70
2023-05-11T06:18:05.513Z,26.60
2023-05-11T06:19:05.878Z,32.60
2023-05-11T06:20:05.467Z,31.80
2023-05-11T06:21:05.467Z,33.00
2023-05-11T06:22:06.853Z,32.70
2023-05-11T06:23:05.483Z,32.20
2023-05-11T06:24:05.458Z,33.20
2023-05-11T06:25:05.461Z,33.40
2023-05-11T06:26:05.459Z,34.20
2023-05-11T06:27:05.461Z,35.50
2023-05-11T06:28:05.457Z,35.60
2023-05-11T06:29:05.466Z,36.80
2023-05-11T06:30:05.461Z,35.50
2023-05-11T06:31:05.456Z,35.90
2023-05-11T06:32:05.526Z,36.70
2023-05-11T06:33:05.572Z,38.30
2023-05-11T06:34:05.444Z,35.60
2023-05-11T06:35:05.470Z,34.70
2023-05-11T06:36:05.596Z,35.40
2023-05-11T06:37:05.439Z,35.60
2023-05-11T06:38:05.452Z,33.90
2023-05-11T06:39:05.440Z,34.30
2023-05-11T06:40:05.438Z,34.80
2023-05-11T06:41:05.449Z,33.30
2023-05-11T06:42:06.738Z,34.00
2023-05-11T06:43:05.446Z,36.00
2023-05-11T06:44:05.429Z,34.90
2023-05-11T06:45:05.476Z,34.50
2023-05-11T06:46:05.469Z,33.50
2023-05-11T06:47:05.426Z,31.30
2023-05-11T06:48:05.507Z,34.60
2023-05-11T06:49:05.423Z,30.20
2023-05-11T06:50:05.416Z,32.10
2023-05-11T06:51:05.447Z,31.20
2023-05-11T06:52:05.415Z,34.60
2023-05-11T06:53:05.440Z,37.20
2023-05-11T06:54:05.416Z,36.20
2023-05-11T06:55:05.790Z,36.80
2023-05-11T06:56:05.410Z,36.40
2023-05-11T06:57:05.410Z,36.20
2023-05-11T06:58:05.415Z,36.60
2023-05-11T06:59:05.411Z,28.00
2023-05-11T07:00:05.403Z,30.50
2023-05-11T07:01:05.448Z,34.90
2023-05-11T07:02:05.401Z,35.50
2023-05-11T07:03:05.506Z,36.90
2023-05-11T07:04:05.450Z,36.00
2023-05-11T07:05:05.541Z,34.60
2023-05-11T07:06:05.391Z,31.60
2023-05-11T07:07:05.412Z,33.80
2023-05-11T07:08:05.384Z,34.30
2023-05-11T07:09:05.389Z,33.90
2023-05-11T07:10:05.384Z,33.00
2023-05-11T07:11:05.390Z,28.30
2023-05-11T07:12:05.386Z,29.40
2023-05-11T07:13:05.379Z,29.90
2023-05-11T07:14:05.385Z,32.90
2023-05-11T07:15:05.382Z,32.00
2023-05-11T07:16:05.386Z,32.30
2023-05-11T07:17:05.524Z,32.00
2023-05-11T07:18:05.456Z,30.80
2023-05-11T07:19:05.500Z,27.00
2023-05-11T07:20:05.382Z,26.00
2023-05-11T07:21:05.361Z,25.90
2023-05-11T07:22:05.365Z,27.00
2023-05-11T07:23:05.394Z,25.20
2023-05-11T07:24:05.358Z,27.70
2023-05-11T07:25:05.361Z,25.00
2023-05-11T07:26:05.353Z,22.40
2023-05-11T07:27:05.353Z,26.10
2023-05-11T07:28:05.350Z,24.80
2023-05-11T07:29:05.363Z,22.80
2023-05-11T07:30:05.357Z,26.30
2023-05-11T07:31:05.405Z,25.10
2023-05-11T07:32:05.342Z,28.00
2023-05-11T07:33:05.380Z,29.40
2023-05-11T07:34:05.348Z,27.30
2023-05-11T07:35:05.345Z,28.30
2023-05-11T07:36:05.340Z,27.30
2023-05-11T07:37:05.341Z,27.70
2023-05-11T07:38:05.334Z,31.50
2023-05-11T07:39:05.358Z,31.10
2023-05-11T07:40:05.331Z,32.00
2023-05-11T07:41:06.883Z,31.50
2023-05-11T07:42:05.328Z,30.10
2023-05-11T07:43:05.330Z,27.70
2023-05-11T07:44:05.327Z,25.80
2023-05-11T07:45:05.329Z,24.70
2023-05-11T07:46:05.371Z,27.20
2023-05-11T07:47:05.326Z,24.50
2023-05-11T07:48:05.426Z,23.70
2023-05-11T07:49:15.752Z,21.40
2023-05-11T07:50:05.334Z,25.30
2023-05-11T07:51:05.320Z,26.20
2023-05-11T07:52:05.314Z,24.60
2023-05-11T07:53:05.315Z,30.50
2023-05-11T07:54:05.315Z,31.30
2023-05-11T07:55:05.328Z,32.40
2023-05-11T07:56:05.311Z,31.90
2023-05-11T07:57:05.315Z,32.50
2023-05-11T07:58:05.305Z,31.40
2023-05-11T07:59:05.320Z,31.30
2023-05-11T08:00:05.302Z,32.60
2023-05-11T08:01:05.306Z,29.70
2023-05-11T08:02:05.332Z,33.00
2023-05-11T08:03:05.320Z,32.10
2023-05-11T08:04:05.314Z,32.50
2023-05-11T08:05:05.312Z,31.50
2023-05-11T08:06:05.316Z,33.60
2023-05-11T08:07:05.310Z,30.50
2023-05-11T08:08:05.293Z,30.40
2023-05-11T08:09:05.298Z,31.90
2023-05-11T08:10:05.292Z,30.80
2023-05-11T08:11:05.379Z,32.00
2023-05-11T08:12:05.295Z,29.60
2023-05-11T08:13:05.288Z,29.40
2023-05-11T08:14:05.299Z,29.20
2023-05-11T08:15:05.286Z,29.90
2023-05-11T08:16:05.321Z,29.90
2023-05-11T08:17:05.283Z,28.00
2023-05-11T08:18:05.303Z,28.80
2023-05-11T08:19:05.301Z,28.20
2023-05-11T08:20:05.279Z,27.20
2023-05-11T08:21:05.277Z,28.10
2023-05-11T08:22:05.277Z,29.80
2023-05-11T08:23:05.279Z,31.10
2023-05-11T08:24:05.286Z,32.80
2023-05-11T08:25:05.291Z,33.40
2023-05-11T08:26:05.266Z,33.10
2023-05-11T08:27:05.333Z,32.80
2023-05-11T08:28:05.272Z,33.10
2023-05-11T08:29:05.273Z,31.20
2023-05-11T08:30:05.266Z,31.30
2023-05-11T08:31:05.272Z,31.00
2023-05-11T08:32:05.337Z,32.20
2023-05-11T08:33:17.565Z,32.70
2023-05-11T08:34:13.730Z,33.90
2023-05-11T08:35:05.342Z,36.70
2023-05-11T08:36:05.266Z,34.50
2023-05-11T08:37:05.266Z,35.80
2023-05-11T08:38:05.261Z,36.80
2023-05-11T08:39:05.254Z,36.90
2023-05-11T08:40:05.259Z,37.90
2023-05-11T08:41:05.267Z,35.00
2023-05-11T08:42:05.256Z,35.50
2023-05-11T08:43:05.273Z,33.20
2023-05-11T08:44:05.251Z,32.10
2023-05-11T08:45:05.252Z,35.30
2023-05-11T08:46:05.308Z,34.10
2023-05-11T08:47:21.043Z,34.20
2023-05-11T08:48:05.267Z,34.40
2023-05-11T08:49:05.247Z,33.60
2023-05-11T08:50:05.244Z,31.00
2023-05-11T08:51:05.615Z,31.80
2023-05-11T08:52:07.132Z,30.40
2023-05-11T08:53:05.237Z,31.50
2023-05-11T08:54:05.237Z,29.50
2023-05-11T08:55:05.233Z,29.30
2023-05-11T08:56:05.232Z,26.00
2023-05-11T08:57:05.241Z,28.00
2023-05-11T08:58:05.227Z,27.20
2023-05-11T08:59:05.320Z,29.80
2023-05-11T09:00:05.255Z,30.50
2023-05-11T09:01:05.272Z,29.90
2023-05-11T09:02:05.222Z,29.90
2023-05-11T09:03:05.265Z,28.70
2023-05-11T09:04:05.219Z,30.30
2023-05-11T09:05:05.309Z,30.10
2023-05-11T09:06:05.216Z,30.00
2023-05-11T09:07:05.215Z,28.90
2023-05-11T09:08:05.220Z,30.80
2023-05-11T09:09:05.214Z,28.70
2023-05-11T09:10:05.217Z,28.10
2023-05-11T09:11:05.224Z,28.60
2023-05-11T09:12:05.236Z,27.70
2023-05-11T09:13:05.208Z,28.10
2023-05-11T09:14:05.204Z,29.90
2023-05-11T09:15:05.238Z,27.60
2023-05-11T09:16:11.321Z,28.90
2023-05-11T09:17:05.418Z,28.50
2023-05-11T09:18:05.367Z,27.80
2023-05-11T09:19:05.266Z,29.20
2023-05-11T09:20:05.344Z,27.80
2023-05-11T09:21:05.202Z,30.60
2023-05-11T09:22:05.195Z,27.60
2023-05-11T09:23:05.206Z,26.30
2023-05-11T09:24:05.197Z,27.10
2023-05-11T09:25:05.191Z,28.40
2023-05-11T09:26:05.192Z,26.50
2023-05-11T09:27:05.190Z,26.20
2023-05-11T09:28:05.189Z,25.70
2023-05-11T09:29:05.462Z,27.90
2023-05-11T09:30:05.184Z,29.40
2023-05-11T09:31:05.274Z,29.30
2023-05-11T09:32:05.192Z,29.60
2023-05-11T09:33:05.265Z,27.80
2023-05-11T09:34:05.184Z,30.70
2023-05-11T09:35:05.179Z,27.50
2023-05-11T09:36:05.182Z,32.70
2023-05-11T09:37:05.181Z,30.70
2023-05-11T09:38:05.343Z,29.90
2023-05-11T09:39:05.180Z,29.80
2023-05-11T09:41:05.174Z,27.20
2023-05-11T09:42:05.168Z,26.40
2023-05-11T09:43:05.175Z,28.50
2023-05-11T09:44:05.166Z,29.90
2023-05-11T09:45:05.169Z,27.40
2023-05-11T09:46:05.174Z,29.70
2023-05-11T09:47:05.181Z,26.90
2023-05-11T09:48:05.252Z,28.70
2023-05-11T09:49:05.160Z,29.70
2023-05-11T09:50:05.159Z,30.90
2023-05-11T09:51:47.761Z,25.30
2023-05-11T09:52:47.759Z,28.70
2023-05-11T09:53:47.756Z,30.50
2023-05-11T09:54:47.761Z,28.30
2023-05-11T09:55:47.753Z,27.60
2023-05-11T09:56:47.761Z,30.70
2023-05-11T09:57:47.757Z,30.40
2023-05-11T09:58:47.785Z,30.70
2023-05-11T09:59:47.760Z,28.60
2023-05-11T10:00:47.742Z,29.50
2023-05-11T10:01:47.798Z,29.30
2023-05-11T10:02:47.866Z,29.00
2023-05-11T10:03:47.885Z,28.90
2023-05-11T10:04:47.741Z,27.20
2023-05-11T10:05:47.737Z,27.10
2023-05-11T10:06:47.742Z,26.90
2023-05-11T10:07:47.736Z,28.10
2023-05-11T10:08:47.739Z,27.10
2023-05-11T10:09:47.731Z,27.70
2023-05-11T10:10:47.729Z,28.20
2023-05-11T10:11:47.775Z,26.90
2023-05-11T10:12:47.728Z,27.90
2023-05-11T10:13:47.726Z,28.70
2023-05-11T10:14:47.728Z,29.10
2023-05-11T10:15:47.741Z,27.90
2023-05-11T10:16:47.721Z,28.20
2023-05-11T10:17:47.763Z,27.30
2023-05-11T10:18:47.747Z,26.10
2023-05-11T10:19:47.729Z,26.60
2023-05-11T10:20:47.720Z,26.30
2023-05-11T10:21:47.724Z,27.80
2023-05-11T10:22:47.715Z,26.30
2023-05-11T10:23:47.711Z,27.50
2023-05-11T10:24:47.714Z,25.20
2023-05-11T10:25:47.715Z,24.90
2023-05-11T10:26:47.710Z,25.00
2023-05-11T10:27:47.726Z,24.70
2023-05-11T10:28:47.712Z,24.10
2023-05-11T10:29:47.707Z,23.10
2023-05-11T10:30:47.704Z,25.10
2023-05-11T10:31:47.745Z,23.00
2023-05-11T10:32:47.732Z,22.10
2023-05-11T10:33:49.197Z,23.00
2023-05-11T10:34:47.721Z,21.70
2023-05-11T10:35:47.693Z,21.60
2023-05-11T10:36:47.691Z,22.10
2023-05-11T10:37:47.690Z,20.60
2023-05-11T10:38:47.693Z,20.20
2023-05-11T10:39:49.342Z,19.30
2023-05-11T10:40:47.691Z,23.20
2023-05-11T10:41:47.688Z,23.00
2023-05-11T10:42:47.686Z,23.50
2023-05-11T10:43:47.681Z,22.70
2023-05-11T10:44:47.681Z,23.10
2023-05-11T10:45:47.710Z,22.50
2023-05-11T10:46:47.678Z,22.50
2023-05-11T10:47:47.743Z,23.00
2023-05-11T10:48:47.678Z,23.20
2023-05-11T10:49:47.674Z,22.20
2023-05-11T10:50:47.692Z,25.80
2023-05-11T10:51:47.869Z,25.50
2023-05-11T10:52:47.675Z,25.00
2023-05-11T10:53:47.667Z,26.20
2023-05-11T10:54:47.666Z,26.10
2023-05-11T10:55:47.712Z,25.20
2023-05-11T10:56:47.662Z,25.40
2023-05-11T10:57:47.665Z,23.60
2023-05-11T10:58:47.671Z,23.40
2023-05-11T10:59:47.660Z,24.90
2023-05-11T11:00:47.853Z,22.00
2023-05-11T11:01:47.680Z,24.10
2023-05-11T11:02:47.695Z,22.70
2023-05-11T11:03:47.661Z,23.30
2023-05-11T11:04:47.668Z,23.90
2023-05-11T11:05:47.687Z,27.20
2023-05-11T11:06:47.674Z,28.60
2023-05-11T11:07:47.649Z,27.20
2023-05-11T11:08:47.648Z,31.20
2023-05-11T11:09:47.647Z,28.00
2023-05-11T11:10:47.649Z,22.70
2023-05-11T11:11:47.643Z,23.50
2023-05-11T11:12:47.645Z,24.10
2023-05-11T11:13:47.642Z,23.40
2023-05-11T11:14:47.642Z,20.70
2023-05-11T11:15:47.637Z,22.10
2023-05-11T11:16:47.667Z,21.90
2023-05-11T11:17:47.648Z,22.30
2023-05-11T11:18:47.727Z,22.40
2023-05-11T11:19:47.633Z,22.20
2023-05-11T11:20:47.634Z,20.90
2023-05-11T11:21:47.635Z,22.40
2023-05-11T11:22:47.762Z,23.30
2023-05-11T11:23:47.628Z,21.50
2023-05-11T11:24:47.627Z,22.40
2023-05-11T11:25:47.632Z,21.50
2023-05-11T11:26:47.632Z,20.90
2023-05-11T11:27:47.624Z,20.70
2023-05-11T11:28:47.619Z,22.10
2023-05-11T11:29:47.619Z,20.60
2023-05-11T11:30:47.643Z,20.80
2023-05-11T11:31:47.614Z,24.80
2023-05-11T11:32:47.647Z,25.00
2023-05-11T11:33:47.612Z,22.30
2023-05-11T11:34:47.617Z,21.30
2023-05-11T11:35:47.606Z,22.10
2023-05-11T11:36:47.623Z,23.30
2023-05-11T11:37:47.612Z,23.30
2023-05-11T11:38:47.626Z,23.70
2023-05-11T11:39:47.624Z,25.10
2023-05-11T11:40:51.149Z,24.90
2023-05-11T11:41:47.600Z,23.70
2023-05-11T11:42:47.599Z,21.50
2023-05-11T11:43:47.597Z,23.10
2023-05-11T11:44:47.593Z,23.10
2023-05-11T11:45:47.611Z,23.10
2023-05-11T11:46:47.613Z,22.80
2023-05-11T11:47:47.608Z,23.00
2023-05-11T11:48:47.594Z,20.90
2023-05-11T11:49:47.589Z,21.60
2023-05-11T11:50:47.589Z,22.10
2023-05-11T11:51:47.787Z,23.00
2023-05-11T11:52:47.589Z,21.90
2023-05-11T11:53:47.584Z,21.20
2023-05-11T11:54:47.601Z,24.70
2023-05-11T11:55:47.585Z,24.60
2023-05-11T11:56:47.585Z,23.40
2023-05-11T11:57:47.574Z,22.20
2023-05-11T11:58:47.576Z,23.30
2023-05-11T11:59:47.577Z,24.60
2023-05-11T12:00:47.569Z,23.80
2023-05-11T12:01:47.574Z,26.00
2023-05-11T12:02:47.630Z,23.10
2023-05-11T12:03:47.718Z,21.30
2023-05-11T12:04:47.731Z,22.90
2023-05-11T12:05:47.572Z,22.50
2023-05-11T12:06:47.561Z,25.60
2023-05-11T12:07:47.567Z,23.90
2023-05-11T12:08:47.564Z,24.00
2023-05-11T12:09:47.652Z,22.70
2023-05-11T12:10:47.575Z,24.40
2023-05-11T12:11:47.563Z,26.70
2023-05-11T12:12:47.553Z,24.00
2023-05-11T12:13:47.554Z,21.00
2023-05-11T12:14:47.550Z,22.90
2023-05-11T12:15:47.549Z,22.50
2023-05-11T12:16:47.594Z,23.80
2023-05-11T12:17:47.636Z,21.50
2023-05-11T12:18:47.599Z,23.50
2023-05-11T12:19:47.566Z,23.60
2023-05-11T12:20:47.543Z,22.00
2023-05-11T12:21:47.543Z,22.50
2023-05-11T12:22:47.539Z,23.40
2023-05-11T12:23:47.532Z,20.50
2023-05-11T12:24:47.535Z,21.60
2023-05-11T12:25:47.531Z,23.40
2023-05-11T12:26:47.552Z,21.80
2023-05-11T12:27:47.536Z,22.70
2023-05-11T12:28:47.530Z,22.90
2023-05-11T12:29:47.530Z,20.50
2023-05-11T12:30:47.528Z,20.20
2023-05-11T12:31:47.704Z,21.50
2023-05-11T12:32:47.862Z,21.60
2023-05-11T12:33:47.527Z,23.40
2023-05-11T12:34:47.528Z,22.80
2023-05-11T12:35:47.520Z,23.30
2023-05-11T12:36:47.520Z,21.40
2023-05-11T12:37:47.522Z,22.00
2023-05-11T12:38:47.519Z,20.80
2023-05-11T12:39:47.520Z,20.00
2023-05-11T12:40:47.521Z,20.30
2023-05-11T12:41:47.517Z,19.60
2023-05-11T12:42:47.534Z,22.70
2023-05-11T12:43:47.530Z,21.70
2023-05-11T12:44:47.511Z,23.20
2023-05-11T12:45:47.531Z,23.10
2023-05-11T12:46:47.535Z,23.80
2023-05-11T12:47:47.543Z,21.50
2023-05-11T12:48:47.509Z,23.50
2023-05-11T12:49:47.520Z,22.70
2023-05-11T12:50:47.510Z,23.40
2023-05-11T12:51:47.707Z,22.80
2023-05-11T12:52:47.508Z,20.90
2023-05-11T12:53:47.501Z,22.70